sensor_id;sensor_type;location;lat;lon;timestamp;P1;durP1;ratioP1;P2;durP2;ratioP2
61640;SDS011;62201;49.966;8.342;2022-09-16T00:00:13;6.63;;;1.67;;
61640;SDS011;62201;49.966;8.342;2022-09-16T00:02:38;8.13;;;2.00;;
61640;SDS011;62201;49.966;8.342;2022-09-16T00:05:04;9.05;;;1.38;;
61640;SDS011;62201;49.966;8.342;2022-09-16T00:07:29;7.07;;;1.65;;
61640;SDS011;62201;49.966;8.342;2022-09-16T00:09:55;6.65;;;1.50;;
61640;SDS011;62201;49.966;8.342;2022-09-16T00:12:20;10.65;;;2.10;;
61640;SDS011;62201;49.966;8.342;2022-09-16T00:14:46;7.85;;;1.75;;
61640;SDS011;62201;49.966;8.342;2022-09-16T00:17:11;11.48;;;1.40;;
61640;SDS011;62201;49.966;8.342;2022-09-16T00:19:36;5.65;;;1.33;;
61640;SDS011;62201;49.966;8.342;2022-09-16T00:22:02;5.13;;;1.42;;
61640;SDS011;62201;49.966;8.342;2022-09-16T00:24:27;10.15;;;1.92;;
61640;SDS011;62201;49.966;8.342;2022-09-16T00:26:53;9.20;;;1.60;;
61640;SDS011;62201;49.966;8.342;2022-09-16T00:29:19;5.97;;;1.20;;
61640;SDS011;62201;49.966;8.342;2022-09-16T00:31:44;6.43;;;1.38;;
61640;SDS011;62201;49.966;8.342;2022-09-16T00:34:09;6.47;;;1.23;;
61640;SDS011;62201;49.966;8.342;2022-09-16T00:36:35;8.32;;;1.30;;
61640;SDS011;62201;49.966;8.342;2022-09-16T00:39:00;5.60;;;1.58;;
61640;SDS011;62201;49.966;8.342;2022-09-16T00:41:26;7.43;;;1.75;;
61640;SDS011;62201;49.966;8.342;2022-09-16T00:44:01;7.00;;;1.10;;
61640;SDS011;62201;49.966;8.342;2022-09-16T00:49:04;5.63;;;1.35;;
61640;SDS011;62201;49.966;8.342;2022-09-16T00:51:36;7.55;;;1.30;;
61640;SDS011;62201;49.966;8.342;2022-09-16T00:54:03;4.25;;;1.20;;
61640;SDS011;62201;49.966;8.342;2022-09-16T00:56:34;4.07;;;1.10;;
61640;SDS011;62201;49.966;8.342;2022-09-16T00:59:10;6.50;;;1.05;;
61640;SDS011;62201;49.966;8.342;2022-09-16T01:01:44;5.82;;;1.40;;
61640;SDS011;62201;49.966;8.342;2022-09-16T01:04:15;4.88;;;1.25;;
61640;SDS011;62201;49.966;8.342;2022-09-16T01:06:44;8.00;;;1.27;;
61640;SDS011;62201;49.966;8.342;2022-09-16T01:09:10;5.18;;;1.30;;
61640;SDS011;62201;49.966;8.342;2022-09-16T01:11:36;5.65;;;1.27;;
61640;SDS011;62201;49.966;8.342;2022-09-16T01:14:02;4.35;;;1.20;;
61640;SDS011;62201;49.966;8.342;2022-09-16T01:19:41;4.20;;;1.40;;
61640;SDS011;62201;49.966;8.342;2022-09-16T01:30:33;5.18;;;1.27;;
61640;SDS011;62201;49.966;8.342;2022-09-16T01:35:54;7.05;;;0.95;;
61640;SDS011;62201;49.966;8.342;2022-09-16T01:46:27;6.38;;;1.15;;
61640;SDS011;62201;49.966;8.342;2022-09-16T01:59:24;5.05;;;1.50;;
61640;SDS011;62201;49.966;8.342;2022-09-16T02:02:06;7.05;;;1.38;;
61640;SDS011;62201;49.966;8.342;2022-09-16T02:04:43;6.97;;;1.35;;
61640;SDS011;62201;49.966;8.342;2022-09-16T02:07:12;9.57;;;1.30;;
61640;SDS011;62201;49.966;8.342;2022-09-16T02:09:40;8.48;;;1.40;;
61640;SDS011;62201;49.966;8.342;2022-09-16T02:12:12;8.40;;;1.45;;
61640;SDS011;62201;49.966;8.342;2022-09-16T02:14:42;13.15;;;1.35;;
61640;SDS011;62201;49.966;8.342;2022-09-16T02:17:10;9.85;;;1.42;;
61640;SDS011;62201;49.966;8.342;2022-09-16T02:19:40;7.05;;;1.10;;
61640;SDS011;62201;49.966;8.342;2022-09-16T02:22:10;6.10;;;1.13;;
61640;SDS011;62201;49.966;8.342;2022-09-16T02:24:39;7.07;;;1.23;;
61640;SDS011;62201;49.966;8.342;2022-09-16T02:27:09;9.25;;;1.20;;
61640;SDS011;62201;49.966;8.342;2022-09-16T02:29:40;10.15;;;1.48;;
61640;SDS011;62201;49.966;8.342;2022-09-16T02:32:11;9.98;;;1.30;;
61640;SDS011;62201;49.966;8.342;2022-09-16T02:34:40;9.52;;;1.48;;
61640;SDS011;62201;49.966;8.342;2022-09-16T02:37:13;11.30;;;2.10;;
61640;SDS011;62201;49.966;8.342;2022-09-16T02:39:47;12.52;;;1.05;;
61640;SDS011;62201;49.966;8.342;2022-09-16T02:42:14;13.23;;;1.52;;
61640;SDS011;62201;49.966;8.342;2022-09-16T02:44:40;13.30;;;1.50;;
61640;SDS011;62201;49.966;8.342;2022-09-16T02:49:43;10.60;;;1.73;;
61640;SDS011;62201;49.966;8.342;2022-09-16T02:57:58;6.75;;;1.05;;
61640;SDS011;62201;49.966;8.342;2022-09-16T03:00:24;5.03;;;1.10;;
61640;SDS011;62201;49.966;8.342;2022-09-16T03:02:52;7.60;;;0.98;;
61640;SDS011;62201;49.966;8.342;2022-09-16T03:05:18;4.50;;;1.08;;
61640;SDS011;62201;49.966;8.342;2022-09-16T03:07:43;11.20;;;1.10;;
61640;SDS011;62201;49.966;8.342;2022-09-16T03:10:09;4.82;;;1.00;;
61640;SDS011;62201;49.966;8.342;2022-09-16T03:13:00;6.65;;;1.13;;
61640;SDS011;62201;49.966;8.342;2022-09-16T03:15:47;9.23;;;1.10;;
61640;SDS011;62201;49.966;8.342;2022-09-16T03:21:26;8.90;;;1.58;;
61640;SDS011;62201;49.966;8.342;2022-09-16T03:24:07;5.00;;;1.00;;
61640;SDS011;62201;49.966;8.342;2022-09-16T03:26:55;7.65;;;1.73;;
61640;SDS011;62201;49.966;8.342;2022-09-16T03:32:17;6.03;;;1.08;;
61640;SDS011;62201;49.966;8.342;2022-09-16T03:34:50;4.95;;;1.23;;
61640;SDS011;62201;49.966;8.342;2022-09-16T03:37:19;5.88;;;1.35;;
61640;SDS011;62201;49.966;8.342;2022-09-16T03:39:50;4.80;;;1.10;;
61640;SDS011;62201;49.966;8.342;2022-09-16T03:42:19;6.03;;;1.20;;
61640;SDS011;62201;49.966;8.342;2022-09-16T03:44:45;8.05;;;1.02;;
61640;SDS011;62201;49.966;8.342;2022-09-16T03:47:10;9.02;;;1.35;;
61640;SDS011;62201;49.966;8.342;2022-09-16T03:49:36;7.28;;;1.48;;
61640;SDS011;62201;49.966;8.342;2022-09-16T03:52:02;9.73;;;1.40;;
61640;SDS011;62201;49.966;8.342;2022-09-16T03:54:32;5.00;;;1.27;;
61640;SDS011;62201;49.966;8.342;2022-09-16T03:56:58;9.10;;;1.55;;
61640;SDS011;62201;49.966;8.342;2022-09-16T03:59:24;11.10;;;1.55;;
61640;SDS011;62201;49.966;8.342;2022-09-16T04:01:50;6.43;;;1.27;;
61640;SDS011;62201;49.966;8.342;2022-09-16T04:04:16;5.32;;;1.65;;
61640;SDS011;62201;49.966;8.342;2022-09-16T04:06:41;11.32;;;1.60;;
61640;SDS011;62201;49.966;8.342;2022-09-16T04:09:09;7.53;;;1.25;;
61640;SDS011;62201;49.966;8.342;2022-09-16T04:11:36;9.63;;;2.10;;
61640;SDS011;62201;49.966;8.342;2022-09-16T04:14:02;9.13;;;1.70;;
61640;SDS011;62201;49.966;8.342;2022-09-16T04:16:28;6.90;;;1.50;;
61640;SDS011;62201;49.966;8.342;2022-09-16T04:18:54;8.63;;;1.50;;
61640;SDS011;62201;49.966;8.342;2022-09-16T04:21:19;10.63;;;1.65;;
61640;SDS011;62201;49.966;8.342;2022-09-16T04:23:44;8.52;;;1.30;;
61640;SDS011;62201;49.966;8.342;2022-09-16T04:26:10;9.73;;;1.45;;
61640;SDS011;62201;49.966;8.342;2022-09-16T04:28:36;4.90;;;1.10;;
61640;SDS011;62201;49.966;8.342;2022-09-16T04:31:03;9.73;;;1.30;;
61640;SDS011;62201;49.966;8.342;2022-09-16T04:33:30;4.25;;;1.30;;
61640;SDS011;62201;49.966;8.342;2022-09-16T04:36:01;5.40;;;1.20;;
61640;SDS011;62201;49.966;8.342;2022-09-16T04:38:32;8.20;;;1.60;;
61640;SDS011;62201;49.966;8.342;2022-09-16T04:41:02;4.90;;;1.40;;
61640;SDS011;62201;49.966;8.342;2022-09-16T04:43:29;7.85;;;1.42;;
61640;SDS011;62201;49.966;8.342;2022-09-16T04:45:55;10.90;;;1.55;;
61640;SDS011;62201;49.966;8.342;2022-09-16T04:48:21;8.80;;;1.50;;
61640;SDS011;62201;49.966;8.342;2022-09-16T04:50:46;9.73;;;1.58;;
61640;SDS011;62201;49.966;8.342;2022-09-16T04:53:11;7.93;;;1.63;;
61640;SDS011;62201;49.966;8.342;2022-09-16T04:55:37;5.35;;;1.50;;
61640;SDS011;62201;49.966;8.342;2022-09-16T04:58:02;8.13;;;1.73;;
61640;SDS011;62201;49.966;8.342;2022-09-16T05:00:28;6.75;;;1.67;;
61640;SDS011;62201;49.966;8.342;2022-09-16T05:02:53;5.55;;;1.40;;
61640;SDS011;62201;49.966;8.342;2022-09-16T05:05:19;9.13;;;1.80;;
61640;SDS011;62201;49.966;8.342;2022-09-16T05:07:45;6.28;;;1.70;;
61640;SDS011;62201;49.966;8.342;2022-09-16T05:10:10;8.73;;;1.85;;
61640;SDS011;62201;49.966;8.342;2022-09-16T05:12:36;9.82;;;1.83;;
61640;SDS011;62201;49.966;8.342;2022-09-16T05:15:02;6.68;;;1.70;;
61640;SDS011;62201;49.966;8.342;2022-09-16T05:17:29;6.07;;;1.60;;
61640;SDS011;62201;49.966;8.342;2022-09-16T05:19:55;10.65;;;1.88;;
61640;SDS011;62201;49.966;8.342;2022-09-16T05:22:20;5.18;;;1.40;;
61640;SDS011;62201;49.966;8.342;2022-09-16T05:24:46;8.13;;;1.58;;
61640;SDS011;62201;49.966;8.342;2022-09-16T05:27:11;6.05;;;1.90;;
61640;SDS011;62201;49.966;8.342;2022-09-16T05:29:37;8.48;;;1.90;;
61640;SDS011;62201;49.966;8.342;2022-09-16T05:32:02;4.65;;;1.35;;
61640;SDS011;62201;49.966;8.342;2022-09-16T05:34:27;6.97;;;1.60;;
61640;SDS011;62201;49.966;8.342;2022-09-16T05:36:53;7.55;;;1.50;;
61640;SDS011;62201;49.966;8.342;2022-09-16T05:39:19;7.35;;;1.80;;
61640;SDS011;62201;49.966;8.342;2022-09-16T05:41:49;8.77;;;1.63;;
61640;SDS011;62201;49.966;8.342;2022-09-16T05:44:39;5.68;;;1.38;;
61640;SDS011;62201;49.966;8.342;2022-09-16T05:47:05;5.55;;;1.70;;
61640;SDS011;62201;49.966;8.342;2022-09-16T05:49:30;8.32;;;1.95;;
61640;SDS011;62201;49.966;8.342;2022-09-16T05:51:55;7.90;;;1.80;;
61640;SDS011;62201;49.966;8.342;2022-09-16T05:54:21;7.25;;;1.52;;
61640;SDS011;62201;49.966;8.342;2022-09-16T05:56:49;8.57;;;1.70;;
61640;SDS011;62201;49.966;8.342;2022-09-16T05:59:15;9.00;;;1.75;;
61640;SDS011;62201;49.966;8.342;2022-09-16T06:01:41;7.53;;;1.80;;
61640;SDS011;62201;49.966;8.342;2022-09-16T06:04:08;10.18;;;1.85;;
61640;SDS011;62201;49.966;8.342;2022-09-16T06:06:37;7.10;;;1.70;;
61640;SDS011;62201;49.966;8.342;2022-09-16T06:09:05;8.18;;;1.98;;
61640;SDS011;62201;49.966;8.342;2022-09-16T06:11:37;8.10;;;1.83;;
61640;SDS011;62201;49.966;8.342;2022-09-16T06:14:04;9.40;;;2.05;;
61640;SDS011;62201;49.966;8.342;2022-09-16T06:16:31;7.00;;;1.67;;
61640;SDS011;62201;49.966;8.342;2022-09-16T06:18:57;10.30;;;1.88;;
61640;SDS011;62201;49.966;8.342;2022-09-16T06:21:24;10.43;;;2.05;;
61640;SDS011;62201;49.966;8.342;2022-09-16T06:23:50;10.40;;;2.08;;
61640;SDS011;62201;49.966;8.342;2022-09-16T06:26:16;7.97;;;1.60;;
61640;SDS011;62201;49.966;8.342;2022-09-16T06:28:44;7.78;;;2.00;;
61640;SDS011;62201;49.966;8.342;2022-09-16T06:31:14;10.98;;;1.95;;
61640;SDS011;62201;49.966;8.342;2022-09-16T06:33:44;9.05;;;1.60;;
61640;SDS011;62201;49.966;8.342;2022-09-16T06:36:11;7.35;;;1.55;;
61640;SDS011;62201;49.966;8.342;2022-09-16T06:38:39;11.32;;;1.60;;
61640;SDS011;62201;49.966;8.342;2022-09-16T06:41:05;5.90;;;1.40;;
61640;SDS011;62201;49.966;8.342;2022-09-16T06:43:32;7.80;;;1.80;;
61640;SDS011;62201;49.966;8.342;2022-09-16T06:46:02;5.65;;;1.70;;
61640;SDS011;62201;49.966;8.342;2022-09-16T06:48:37;7.07;;;1.67;;
61640;SDS011;62201;49.966;8.342;2022-09-16T06:51:05;7.18;;;1.10;;
61640;SDS011;62201;49.966;8.342;2022-09-16T06:53:34;4.63;;;1.65;;
61640;SDS011;62201;49.966;8.342;2022-09-16T06:56:03;5.75;;;1.20;;
61640;SDS011;62201;49.966;8.342;2022-09-16T06:58:31;7.15;;;1.40;;
61640;SDS011;62201;49.966;8.342;2022-09-16T07:00:57;5.45;;;1.30;;
61640;SDS011;62201;49.966;8.342;2022-09-16T07:03:23;8.00;;;1.60;;
61640;SDS011;62201;49.966;8.342;2022-09-16T07:05:58;5.90;;;1.40;;
61640;SDS011;62201;49.966;8.342;2022-09-16T07:08:27;11.65;;;1.67;;
61640;SDS011;62201;49.966;8.342;2022-09-16T07:10:57;8.77;;;1.38;;
61640;SDS011;62201;49.966;8.342;2022-09-16T07:13:25;6.32;;;1.80;;
61640;SDS011;62201;49.966;8.342;2022-09-16T07:15:51;6.18;;;1.38;;
61640;SDS011;62201;49.966;8.342;2022-09-16T07:18:16;7.28;;;1.10;;
61640;SDS011;62201;49.966;8.342;2022-09-16T07:20:42;6.65;;;1.70;;
61640;SDS011;62201;49.966;8.342;2022-09-16T07:23:07;6.25;;;1.40;;
61640;SDS011;62201;49.966;8.342;2022-09-16T07:25:32;8.45;;;1.45;;
61640;SDS011;62201;49.966;8.342;2022-09-16T07:27:59;7.93;;;1.40;;
61640;SDS011;62201;49.966;8.342;2022-09-16T07:30:24;10.38;;;1.40;;
61640;SDS011;62201;49.966;8.342;2022-09-16T07:32:50;4.97;;;1.20;;
61640;SDS011;62201;49.966;8.342;2022-09-16T07:35:16;7.63;;;1.70;;
61640;SDS011;62201;49.966;8.342;2022-09-16T07:37:41;7.88;;;1.30;;
61640;SDS011;62201;49.966;8.342;2022-09-16T07:40:06;10.93;;;1.42;;
61640;SDS011;62201;49.966;8.342;2022-09-16T07:42:32;7.53;;;1.60;;
61640;SDS011;62201;49.966;8.342;2022-09-16T07:44:58;10.68;;;1.70;;
61640;SDS011;62201;49.966;8.342;2022-09-16T07:47:23;6.18;;;1.70;;
61640;SDS011;62201;49.966;8.342;2022-09-16T07:49:48;12.13;;;1.60;;
61640;SDS011;62201;49.966;8.342;2022-09-16T07:52:19;4.78;;;1.52;;
61640;SDS011;62201;49.966;8.342;2022-09-16T07:54:45;7.88;;;1.20;;
61640;SDS011;62201;49.966;8.342;2022-09-16T07:57:13;5.72;;;1.45;;
61640;SDS011;62201;49.966;8.342;2022-09-16T07:59:38;12.20;;;1.60;;
61640;SDS011;62201;49.966;8.342;2022-09-16T08:02:04;8.93;;;1.30;;
61640;SDS011;62201;49.966;8.342;2022-09-16T08:04:29;7.82;;;1.52;;
61640;SDS011;62201;49.966;8.342;2022-09-16T08:06:54;5.45;;;1.35;;
61640;SDS011;62201;49.966;8.342;2022-09-16T08:09:20;7.40;;;1.33;;
61640;SDS011;62201;49.966;8.342;2022-09-16T08:11:46;5.68;;;1.20;;
61640;SDS011;62201;49.966;8.342;2022-09-16T08:14:12;9.82;;;1.38;;
61640;SDS011;62201;49.966;8.342;2022-09-16T08:16:37;5.28;;;1.02;;
61640;SDS011;62201;49.966;8.342;2022-09-16T08:19:03;5.60;;;1.02;;
61640;SDS011;62201;49.966;8.342;2022-09-16T08:21:28;4.50;;;1.00;;
61640;SDS011;62201;49.966;8.342;2022-09-16T08:23:54;10.52;;;1.42;;
61640;SDS011;62201;49.966;8.342;2022-09-16T08:26:20;8.02;;;1.15;;
61640;SDS011;62201;49.966;8.342;2022-09-16T08:28:46;6.35;;;1.60;;
61640;SDS011;62201;49.966;8.342;2022-09-16T08:31:13;5.30;;;1.17;;
61640;SDS011;62201;49.966;8.342;2022-09-16T08:33:39;4.85;;;1.08;;
61640;SDS011;62201;49.966;8.342;2022-09-16T08:36:06;6.70;;;1.20;;
61640;SDS011;62201;49.966;8.342;2022-09-16T08:38:36;5.85;;;1.23;;
61640;SDS011;62201;49.966;8.342;2022-09-16T08:43:55;7.97;;;1.30;;
61640;SDS011;62201;49.966;8.342;2022-09-16T08:46:49;8.43;;;1.33;;
61640;SDS011;62201;49.966;8.342;2022-09-16T08:52:14;10.38;;;1.23;;
61640;SDS011;62201;49.966;8.342;2022-09-16T08:54:42;9.13;;;1.17;;
61640;SDS011;62201;49.966;8.342;2022-09-16T08:57:15;6.15;;;1.02;;
61640;SDS011;62201;49.966;8.342;2022-09-16T08:59:45;7.95;;;1.42;;
61640;SDS011;62201;49.966;8.342;2022-09-16T09:05:13;8.60;;;1.20;;
61640;SDS011;62201;49.966;8.342;2022-09-16T09:07:50;5.40;;;1.10;;
61640;SDS011;62201;49.966;8.342;2022-09-16T09:10:30;13.77;;;2.15;;
61640;SDS011;62201;49.966;8.342;2022-09-16T09:18:54;6.75;;;1.00;;
61640;SDS011;62201;49.966;8.342;2022-09-16T09:21:36;9.80;;;1.80;;
61640;SDS011;62201;49.966;8.342;2022-09-16T09:26:51;2.67;;;1.00;;
61640;SDS011;62201;49.966;8.342;2022-09-16T09:33:13;4.32;;;1.20;;
61640;SDS011;62201;49.966;8.342;2022-09-16T09:35:41;4.60;;;0.90;;
61640;SDS011;62201;49.966;8.342;2022-09-16T09:43:38;8.77;;;1.25;;
61640;SDS011;62201;49.966;8.342;2022-09-16T09:48:38;4.90;;;1.00;;
61640;SDS011;62201;49.966;8.342;2022-09-16T09:51:16;6.03;;;1.40;;
61640;SDS011;62201;49.966;8.342;2022-09-16T09:53:52;7.18;;;1.10;;
61640;SDS011;62201;49.966;8.342;2022-09-16T09:59:00;5.20;;;1.27;;
61640;SDS011;62201;49.966;8.342;2022-09-16T10:01:26;5.53;;;1.40;;
61640;SDS011;62201;49.966;8.342;2022-09-16T10:03:51;7.70;;;0.93;;
61640;SDS011;62201;49.966;8.342;2022-09-16T10:06:22;6.10;;;1.13;;
61640;SDS011;62201;49.966;8.342;2022-09-16T10:08:51;5.15;;;0.80;;
61640;SDS011;62201;49.966;8.342;2022-09-16T10:11:20;5.90;;;1.42;;
61640;SDS011;62201;49.966;8.342;2022-09-16T10:13:56;9.80;;;1.10;;
61640;SDS011;62201;49.966;8.342;2022-09-16T10:16:28;4.93;;;0.90;;
61640;SDS011;62201;49.966;8.342;2022-09-16T10:19:01;7.15;;;0.93;;
61640;SDS011;62201;49.966;8.342;2022-09-16T10:21:43;6.10;;;0.90;;
61640;SDS011;62201;49.966;8.342;2022-09-16T10:24:38;7.13;;;0.90;;
61640;SDS011;62201;49.966;8.342;2022-09-16T10:27:20;5.95;;;1.00;;
61640;SDS011;62201;49.966;8.342;2022-09-16T10:33:25;5.53;;;1.30;;
61640;SDS011;62201;49.966;8.342;2022-09-16T10:35:28;6.88;;;1.10;;
61640;SDS011;62201;49.966;8.342;2022-09-16T10:38:17;7.35;;;1.00;;
61640;SDS011;62201;49.966;8.342;2022-09-16T10:41:19;9.30;;;1.00;;
61640;SDS011;62201;49.966;8.342;2022-09-16T10:43:45;4.18;;;0.80;;
61640;SDS011;62201;49.966;8.342;2022-09-16T10:46:14;3.45;;;0.80;;
61640;SDS011;62201;49.966;8.342;2022-09-16T10:48:42;5.22;;;1.00;;
61640;SDS011;62201;49.966;8.342;2022-09-16T10:51:18;7.35;;;1.40;;
61640;SDS011;62201;49.966;8.342;2022-09-16T10:53:50;4.75;;;0.93;;
61640;SDS011;62201;49.966;8.342;2022-09-16T10:56:21;4.13;;;1.05;;
61640;SDS011;62201;49.966;8.342;2022-09-16T10:58:59;5.03;;;1.10;;
61640;SDS011;62201;49.966;8.342;2022-09-16T11:04:38;3.70;;;0.80;;
61640;SDS011;62201;49.966;8.342;2022-09-16T11:08:28;3.97;;;1.02;;
61640;SDS011;62201;49.966;8.342;2022-09-16T11:19:04;2.97;;;0.68;;
61640;SDS011;62201;49.966;8.342;2022-09-16T11:21:48;5.35;;;0.90;;
61640;SDS011;62201;49.966;8.342;2022-09-16T11:24:32;4.65;;;0.80;;
61640;SDS011;62201;49.966;8.342;2022-09-16T11:41:08;4.10;;;1.15;;
61640;SDS011;62201;49.966;8.342;2022-09-16T11:43:39;5.45;;;1.30;;
61640;SDS011;62201;49.966;8.342;2022-09-16T11:48:56;6.63;;;1.02;;
61640;SDS011;62201;49.966;8.342;2022-09-16T11:54:16;3.83;;;1.02;;
61640;SDS011;62201;49.966;8.342;2022-09-16T11:58:04;3.60;;;0.90;;
61640;SDS011;62201;49.966;8.342;2022-09-16T12:00:04;2.75;;;0.68;;
61640;SDS011;62201;49.966;8.342;2022-09-16T12:08:03;2.15;;;0.47;;
61640;SDS011;62201;49.966;8.342;2022-09-16T12:10:59;1.13;;;0.47;;
61640;SDS011;62201;49.966;8.342;2022-09-16T12:13:38;3.55;;;0.38;;
61640;SDS011;62201;49.966;8.342;2022-09-16T12:16:11;4.30;;;0.43;;
61640;SDS011;62201;49.966;8.342;2022-09-16T12:18:43;2.53;;;0.65;;
61640;SDS011;62201;49.966;8.342;2022-09-16T12:21:19;1.08;;;0.60;;
61640;SDS011;62201;49.966;8.342;2022-09-16T12:23:59;2.28;;;0.40;;
61640;SDS011;62201;49.966;8.342;2022-09-16T12:26:35;1.60;;;0.75;;
61640;SDS011;62201;49.966;8.342;2022-09-16T12:29:13;3.67;;;0.70;;
61640;SDS011;62201;49.966;8.342;2022-09-16T12:31:48;3.70;;;0.50;;
61640;SDS011;62201;49.966;8.342;2022-09-16T12:34:22;0.85;;;0.43;;
61640;SDS011;62201;49.966;8.342;2022-09-16T12:37:00;2.25;;;0.63;;
61640;SDS011;62201;49.966;8.342;2022-09-16T12:39:31;1.83;;;0.52;;
61640;SDS011;62201;49.966;8.342;2022-09-16T12:45:00;2.33;;;0.60;;
61640;SDS011;62201;49.966;8.342;2022-09-16T12:50:45;5.30;;;0.90;;
61640;SDS011;62201;49.966;8.342;2022-09-16T13:01:55;3.92;;;0.60;;
61640;SDS011;62201;49.966;8.342;2022-09-16T13:04:29;2.63;;;0.80;;
61640;SDS011;62201;49.966;8.342;2022-09-16T13:07:14;2.42;;;0.55;;
61640;SDS011;62201;49.966;8.342;2022-09-16T13:10:00;1.67;;;0.50;;
61640;SDS011;62201;49.966;8.342;2022-09-16T13:12:30;1.42;;;0.60;;
61640;SDS011;62201;49.966;8.342;2022-09-16T13:14:57;3.50;;;0.50;;
61640;SDS011;62201;49.966;8.342;2022-09-16T13:17:29;1.23;;;0.40;;
61640;SDS011;62201;49.966;8.342;2022-09-16T13:20:11;2.08;;;0.40;;
61640;SDS011;62201;49.966;8.342;2022-09-16T13:22:45;2.42;;;0.52;;
61640;SDS011;62201;49.966;8.342;2022-09-16T13:25:18;2.70;;;0.50;;
61640;SDS011;62201;49.966;8.342;2022-09-16T13:27:51;2.10;;;0.70;;
61640;SDS011;62201;49.966;8.342;2022-09-16T13:30:25;3.33;;;0.60;;
61640;SDS011;62201;49.966;8.342;2022-09-16T13:37:42;2.78;;;1.13;;
61640;SDS011;62201;49.966;8.342;2022-09-16T13:40:19;2.60;;;0.70;;
61640;SDS011;62201;49.966;8.342;2022-09-16T13:43:12;1.05;;;0.60;;
61640;SDS011;62201;49.966;8.342;2022-09-16T13:45:39;1.30;;;0.70;;
61640;SDS011;62201;49.966;8.342;2022-09-16T13:48:15;2.30;;;0.75;;
61640;SDS011;62201;49.966;8.342;2022-09-16T13:50:43;1.25;;;0.60;;
61640;SDS011;62201;49.966;8.342;2022-09-16T13:53:19;1.65;;;0.60;;
61640;SDS011;62201;49.966;8.342;2022-09-16T13:55:49;3.83;;;0.60;;
61640;SDS011;62201;49.966;8.342;2022-09-16T13:58:28;2.13;;;0.40;;
61640;SDS011;62201;49.966;8.342;2022-09-16T14:06:14;0.52;;;0.40;;
61640;SDS011;62201;49.966;8.342;2022-09-16T14:14:39;1.08;;;0.40;;
61640;SDS011;62201;49.966;8.342;2022-09-16T14:17:13;0.80;;;0.30;;
61640;SDS011;62201;49.966;8.342;2022-09-16T14:19:43;3.00;;;0.40;;
61640;SDS011;62201;49.966;8.342;2022-09-16T14:22:17;0.88;;;0.30;;
61640;SDS011;62201;49.966;8.342;2022-09-16T14:24:46;2.33;;;0.45;;
61640;SDS011;62201;49.966;8.342;2022-09-16T14:27:22;0.95;;;0.50;;
61640;SDS011;62201;49.966;8.342;2022-09-16T14:30:03;2.55;;;0.60;;
61640;SDS011;62201;49.966;8.342;2022-09-16T14:32:31;2.97;;;0.57;;
61640;SDS011;62201;49.966;8.342;2022-09-16T14:35:07;0.98;;;0.68;;
61640;SDS011;62201;49.966;8.342;2022-09-16T14:37:35;4.63;;;0.63;;
61640;SDS011;62201;49.966;8.342;2022-09-16T14:40:10;1.73;;;0.60;;
61640;SDS011;62201;49.966;8.342;2022-09-16T14:42:51;1.90;;;0.60;;
61640;SDS011;62201;49.966;8.342;2022-09-16T14:45:26;1.48;;;0.47;;
61640;SDS011;62201;49.966;8.342;2022-09-16T14:47:54;2.28;;;0.63;;
61640;SDS011;62201;49.966;8.342;2022-09-16T14:50:24;0.63;;;0.40;;
61640;SDS011;62201;49.966;8.342;2022-09-16T14:53:00;1.42;;;0.47;;
61640;SDS011;62201;49.966;8.342;2022-09-16T14:55:28;1.85;;;0.35;;
61640;SDS011;62201;49.966;8.342;2022-09-16T14:57:55;1.50;;;0.30;;
61640;SDS011;62201;49.966;8.342;2022-09-16T15:00:23;1.85;;;0.38;;
61640;SDS011;62201;49.966;8.342;2022-09-16T15:05:41;1.02;;;0.40;;
61640;SDS011;62201;49.966;8.342;2022-09-16T15:10:51;4.40;;;0.40;;
61640;SDS011;62201;49.966;8.342;2022-09-16T15:13:37;1.20;;;0.50;;
61640;SDS011;62201;49.966;8.342;2022-09-16T15:16:13;2.70;;;0.60;;
61640;SDS011;62201;49.966;8.342;2022-09-16T15:19:03;1.77;;;0.40;;
61640;SDS011;62201;49.966;8.342;2022-09-16T15:21:32;3.33;;;0.85;;
61640;SDS011;62201;49.966;8.342;2022-09-16T15:24:00;1.15;;;0.40;;
61640;SDS011;62201;49.966;8.342;2022-09-16T15:29:03;5.95;;;0.40;;
61640;SDS011;62201;49.966;8.342;2022-09-16T15:31:38;4.78;;;0.45;;
61640;SDS011;62201;49.966;8.342;2022-09-16T15:34:25;2.25;;;0.40;;
61640;SDS011;62201;49.966;8.342;2022-09-16T15:36:55;2.92;;;0.38;;
61640;SDS011;62201;49.966;8.342;2022-09-16T15:39:36;2.08;;;0.55;;
61640;SDS011;62201;49.966;8.342;2022-09-16T15:42:08;2.95;;;0.45;;
61640;SDS011;62201;49.966;8.342;2022-09-16T15:44:50;1.42;;;0.28;;
61640;SDS011;62201;49.966;8.342;2022-09-16T15:49:52;4.18;;;0.50;;
61640;SDS011;62201;49.966;8.342;2022-09-16T15:55:34;3.92;;;0.43;;
61640;SDS011;62201;49.966;8.342;2022-09-16T15:58:16;2.30;;;0.50;;
61640;SDS011;62201;49.966;8.342;2022-09-16T16:00:58;1.85;;;0.50;;
61640;SDS011;62201;49.966;8.342;2022-09-16T16:03:33;5.20;;;0.70;;
61640;SDS011;62201;49.966;8.342;2022-09-16T16:06:01;3.63;;;0.73;;
61640;SDS011;62201;49.966;8.342;2022-09-16T16:11:15;3.75;;;0.40;;
61640;SDS011;62201;49.966;8.342;2022-09-16T16:13:45;6.10;;;0.82;;
61640;SDS011;62201;49.966;8.342;2022-09-16T16:16:11;3.17;;;0.80;;
61640;SDS011;62201;49.966;8.342;2022-09-16T16:18:38;2.70;;;0.73;;
61640;SDS011;62201;49.966;8.342;2022-09-16T16:21:07;4.43;;;1.00;;
61640;SDS011;62201;49.966;8.342;2022-09-16T16:23:34;3.03;;;0.82;;
61640;SDS011;62201;49.966;8.342;2022-09-16T16:26:00;5.47;;;0.75;;
61640;SDS011;62201;49.966;8.342;2022-09-16T16:28:27;2.45;;;0.82;;
61640;SDS011;62201;49.966;8.342;2022-09-16T16:30:59;4.57;;;0.90;;
61640;SDS011;62201;49.966;8.342;2022-09-16T16:33:36;6.30;;;0.75;;
61640;SDS011;62201;49.966;8.342;2022-09-16T16:36:02;1.98;;;0.70;;
61640;SDS011;62201;49.966;8.342;2022-09-16T16:38:28;1.40;;;0.47;;
61640;SDS011;62201;49.966;8.342;2022-09-16T16:40:54;1.30;;;0.52;;
61640;SDS011;62201;49.966;8.342;2022-09-16T16:43:19;4.18;;;0.60;;
61640;SDS011;62201;49.966;8.342;2022-09-16T16:45:51;4.57;;;0.63;;
61640;SDS011;62201;49.966;8.342;2022-09-16T16:48:17;3.85;;;0.73;;
61640;SDS011;62201;49.966;8.342;2022-09-16T16:50:43;3.58;;;0.60;;
61640;SDS011;62201;49.966;8.342;2022-09-16T16:53:08;1.20;;;0.40;;
61640;SDS011;62201;49.966;8.342;2022-09-16T16:55:33;2.90;;;0.70;;
61640;SDS011;62201;49.966;8.342;2022-09-16T16:57:59;3.45;;;1.00;;
61640;SDS011;62201;49.966;8.342;2022-09-16T17:00:24;4.57;;;0.75;;
61640;SDS011;62201;49.966;8.342;2022-09-16T17:02:49;1.52;;;0.68;;
61640;SDS011;62201;49.966;8.342;2022-09-16T17:05:15;2.65;;;0.85;;
61640;SDS011;62201;49.966;8.342;2022-09-16T17:07:40;2.33;;;0.80;;
61640;SDS011;62201;49.966;8.342;2022-09-16T17:10:05;4.80;;;0.70;;
61640;SDS011;62201;49.966;8.342;2022-09-16T17:12:31;4.10;;;0.65;;
61640;SDS011;62201;49.966;8.342;2022-09-16T17:14:56;2.90;;;0.70;;
61640;SDS011;62201;49.966;8.342;2022-09-16T17:17:22;2.72;;;0.60;;
61640;SDS011;62201;49.966;8.342;2022-09-16T17:19:47;2.13;;;0.68;;
61640;SDS011;62201;49.966;8.342;2022-09-16T17:22:13;3.92;;;0.60;;
61640;SDS011;62201;49.966;8.342;2022-09-16T17:24:38;1.80;;;0.50;;
61640;SDS011;62201;49.966;8.342;2022-09-16T17:27:03;1.77;;;0.52;;
61640;SDS011;62201;49.966;8.342;2022-09-16T17:29:29;2.17;;;0.60;;
61640;SDS011;62201;49.966;8.342;2022-09-16T17:31:54;1.80;;;0.60;;
61640;SDS011;62201;49.966;8.342;2022-09-16T17:34:24;2.13;;;0.73;;
61640;SDS011;62201;49.966;8.342;2022-09-16T17:36:50;3.15;;;0.50;;
61640;SDS011;62201;49.966;8.342;2022-09-16T17:39:16;2.35;;;0.57;;
61640;SDS011;62201;49.966;8.342;2022-09-16T17:41:43;0.68;;;0.32;;
61640;SDS011;62201;49.966;8.342;2022-09-16T17:44:10;2.17;;;0.32;;
61640;SDS011;62201;49.966;8.342;2022-09-16T17:46:37;1.23;;;0.50;;
61640;SDS011;62201;49.966;8.342;2022-09-16T17:49:11;1.70;;;0.50;;
61640;SDS011;62201;49.966;8.342;2022-09-16T17:51:39;2.22;;;0.50;;